createdAt,value
2023-02-02T00:00:37.119Z,10.90
2023-02-02T00:03:26.525Z,12.15
2023-02-02T00:05:56.615Z,13.70
2023-02-02T00:08:25.940Z,22.10
2023-02-02T00:10:57.527Z,15.00
2023-02-02T00:13:26.789Z,22.85
2023-02-02T00:15:56.579Z,15.95
2023-02-02T00:18:25.995Z,21.75
2023-02-02T00:20:55.674Z,15.35
2023-02-02T00:23:24.930Z,29.58
2023-02-02T00:25:56.025Z,17.20
2023-02-02T00:28:25.344Z,29.02
2023-02-02T00:30:55.137Z,24.10
2023-02-02T00:33:24.527Z,36.78
2023-02-02T00:35:54.346Z,14.05
2023-02-02T00:38:23.664Z,22.77
2023-02-02T00:40:53.295Z,22.45
2023-02-02T00:43:24.080Z,49.97
2023-02-02T00:45:52.756Z,20.52
2023-02-02T00:48:22.201Z,31.42
2023-02-02T00:50:52.019Z,24.25
2023-02-02T00:53:21.733Z,27.20
2023-02-02T00:55:51.534Z,27.00
2023-02-02T00:58:20.927Z,26.23
2023-02-02T01:00:52.171Z,23.65
2023-02-02T01:03:21.474Z,23.80
2023-02-02T01:05:52.317Z,21.15
2023-02-02T01:08:21.627Z,44.50
2023-02-02T01:10:51.240Z,20.30
2023-02-02T01:13:20.495Z,27.83
2023-02-02T01:15:56.554Z,34.63
2023-02-02T01:18:26.053Z,35.67
2023-02-02T01:20:59.429Z,20.02
2023-02-02T01:23:29.348Z,24.33
2023-02-02T01:26:00.761Z,25.63
2023-02-02T01:31:06.764Z,32.30
2023-02-02T01:33:36.063Z,25.17
2023-02-02T01:36:08.509Z,22.08
2023-02-02T01:38:37.991Z,27.50
2023-02-02T01:41:08.613Z,30.67
2023-02-02T01:43:57.202Z,26.13
2023-02-02T01:46:30.736Z,28.08
2023-02-02T01:49:04.937Z,28.02
2023-02-02T01:51:43.389Z,24.52
2023-02-02T01:54:16.738Z,23.98
2023-02-02T01:56:50.169Z,10.90
2023-02-02T01:59:20.443Z,19.90
2023-02-02T02:01:55.223Z,24.92
2023-02-02T02:04:26.214Z,19.40
2023-02-02T02:06:55.921Z,20.23
2023-02-02T02:09:25.820Z,18.83
2023-02-02T02:11:56.202Z,32.70
2023-02-02T02:14:43.221Z,33.40
2023-02-02T02:17:32.977Z,20.40
2023-02-02T02:21:13.439Z,21.27
2023-02-02T02:24:36.954Z,19.95
2023-02-02T02:27:30.170Z,21.48
2023-02-02T02:30:22.585Z,31.08
2023-02-02T02:32:57.361Z,22.35
2023-02-02T02:35:34.743Z,17.08
2023-02-02T02:38:11.222Z,27.83
2023-02-02T02:40:46.150Z,15.63
2023-02-02T02:43:20.447Z,17.35
2023-02-02T02:45:50.337Z,24.52
2023-02-02T02:48:21.166Z,28.90
2023-02-02T02:50:51.170Z,28.25
2023-02-02T02:53:23.248Z,25.80
2023-02-02T02:56:05.492Z,20.50
2023-02-02T02:58:43.467Z,26.20
2023-02-02T03:01:19.252Z,19.13
2023-02-02T03:04:04.001Z,15.18
2023-02-02T03:06:43.171Z,26.38
2023-02-02T03:09:16.722Z,19.52
2023-02-02T03:11:46.917Z,19.92
2023-02-02T03:14:16.645Z,14.23
2023-02-02T03:16:46.807Z,19.20
2023-02-02T03:19:17.586Z,19.35
2023-02-02T03:21:47.515Z,9.57
2023-02-02T03:24:16.788Z,11.48
2023-02-02T03:26:47.521Z,19.45
2023-02-02T03:29:17.264Z,10.43
2023-02-02T03:31:47.999Z,10.05
2023-02-02T03:34:18.716Z,9.50
2023-02-02T03:36:48.828Z,15.27
2023-02-02T03:39:18.367Z,13.15
2023-02-02T03:41:48.022Z,13.00
2023-02-02T03:44:17.454Z,10.32
2023-02-02T03:46:47.116Z,9.77
2023-02-02T03:49:18.034Z,11.80
2023-02-02T03:51:47.820Z,6.97
2023-02-02T03:54:17.702Z,13.95
2023-02-02T03:56:47.450Z,8.90
2023-02-02T03:59:16.713Z,8.73
2023-02-02T04:01:46.355Z,9.65
2023-02-02T04:04:15.877Z,17.23
2023-02-02T04:06:47.181Z,15.90
2023-02-02T04:09:16.503Z,17.70
2023-02-02T04:11:46.123Z,12.15
2023-02-02T04:14:15.489Z,14.65
2023-02-02T04:16:45.261Z,11.50
2023-02-02T04:19:14.874Z,9.27
2023-02-02T04:21:46.022Z,9.18
2023-02-02T04:24:16.286Z,13.02
2023-02-02T04:26:45.965Z,17.33
2023-02-02T04:29:15.442Z,11.55
2023-02-02T04:31:45.109Z,15.90
2023-02-02T04:34:14.374Z,13.35
2023-02-02T04:36:44.001Z,7.72
2023-02-02T04:39:14.880Z,12.43
2023-02-02T04:41:44.862Z,13.40
2023-02-02T04:44:17.410Z,12.20
2023-02-02T04:46:47.777Z,20.13
2023-02-02T04:49:17.078Z,11.60
2023-02-02T04:51:46.811Z,15.73
2023-02-02T04:54:17.537Z,11.00
2023-02-02T04:56:47.304Z,8.88
2023-02-02T04:59:16.830Z,15.13
2023-02-02T05:01:46.524Z,8.85
2023-02-02T05:04:17.442Z,12.23
2023-02-02T05:06:47.119Z,10.02
2023-02-02T05:09:17.881Z,5.30
2023-02-02T05:11:47.828Z,5.30
2023-02-02T05:14:19.123Z,7.53
2023-02-02T05:16:50.214Z,13.80
2023-02-02T05:19:19.731Z,13.85
2023-02-02T05:21:51.298Z,7.05
2023-02-02T05:24:22.637Z,8.15
2023-02-02T05:26:53.489Z,7.13
2023-02-02T05:29:22.876Z,8.98
2023-02-02T05:31:53.351Z,7.80
2023-02-02T05:34:22.958Z,8.73
2023-02-02T05:36:53.181Z,5.90
2023-02-02T05:39:24.969Z,7.35
2023-02-02T05:41:54.713Z,7.70
2023-02-02T05:44:24.745Z,6.13
2023-02-02T05:46:54.787Z,7.35
2023-02-02T05:49:24.615Z,8.05
2023-02-02T05:51:57.352Z,8.77
2023-02-02T05:54:28.496Z,8.77
2023-02-02T05:57:01.377Z,5.22
2023-02-02T05:59:30.828Z,7.93
2023-02-02T06:02:00.470Z,8.13
2023-02-02T06:04:29.731Z,6.85
2023-02-02T06:06:59.442Z,6.95
2023-02-02T06:09:30.291Z,10.25
2023-02-02T06:12:00.456Z,9.70
2023-02-02T06:14:29.914Z,8.20
2023-02-02T06:16:59.577Z,9.63
2023-02-02T06:19:29.086Z,6.05
2023-02-02T06:21:58.868Z,8.68
2023-02-02T06:24:29.689Z,8.45
2023-02-02T06:26:59.452Z,8.50
2023-02-02T06:29:28.776Z,11.77
2023-02-02T06:31:58.744Z,9.23
2023-02-02T06:34:28.232Z,11.32
2023-02-02T06:36:58.195Z,9.70
2023-02-02T06:39:29.006Z,6.05
2023-02-02T06:42:02.024Z,5.72
2023-02-02T06:44:35.489Z,11.07
2023-02-02T06:47:05.186Z,6.93
2023-02-02T06:49:34.581Z,7.63
2023-02-02T06:52:04.491Z,1.92
2023-02-02T06:54:35.189Z,4.43
2023-02-02T06:59:34.103Z,1.42
2023-02-02T07:02:03.885Z,4.38
2023-02-02T07:04:33.311Z,6.13
2023-02-02T07:07:03.302Z,4.70
2023-02-02T07:09:36.005Z,6.18
2023-02-02T07:12:05.759Z,5.28
2023-02-02T07:14:35.162Z,6.32
2023-02-02T07:17:04.974Z,4.90
2023-02-02T07:19:34.283Z,4.10
2023-02-02T07:22:03.950Z,4.50
2023-02-02T07:24:34.694Z,4.55
2023-02-02T07:27:04.440Z,2.00
2023-02-02T07:29:34.310Z,6.05
2023-02-02T07:32:04.036Z,6.93
2023-02-02T07:34:33.444Z,5.40
2023-02-02T07:37:03.227Z,8.02
2023-02-02T07:39:32.639Z,5.18
2023-02-02T07:42:04.398Z,3.05
2023-02-02T07:44:33.679Z,8.50
2023-02-02T07:47:03.363Z,6.53
2023-02-02T07:49:32.945Z,5.57
2023-02-02T07:52:02.730Z,9.80
2023-02-02T07:54:33.138Z,7.35
2023-02-02T07:57:04.285Z,7.85
2023-02-02T07:59:33.550Z,14.68
2023-02-02T08:02:03.282Z,7.75
2023-02-02T08:04:33.900Z,3.15
2023-02-02T08:07:03.582Z,7.00
2023-02-02T08:09:33.331Z,9.00
2023-02-02T08:12:04.677Z,5.83
2023-02-02T08:17:03.798Z,2.13
2023-02-02T08:19:33.105Z,1.50
2023-02-02T08:22:02.868Z,2.30
2023-02-02T08:24:32.303Z,3.83
2023-02-02T08:27:02.033Z,2.45
2023-02-02T08:29:32.996Z,2.30
2023-02-02T08:32:02.638Z,1.60
2023-02-02T08:34:34.950Z,4.82
2023-02-02T08:37:04.669Z,5.82
2023-02-02T08:39:34.003Z,3.35
2023-02-02T08:42:03.660Z,3.03
2023-02-02T08:46:00.373Z,2.85
2023-02-02T08:49:53.238Z,2.90
2023-02-02T08:52:25.676Z,4.88
2023-02-02T08:54:55.112Z,7.82
2023-02-02T08:57:24.751Z,10.35
2023-02-02T08:59:55.764Z,4.90
2023-02-02T09:04:54.500Z,7.25
2023-02-02T09:07:24.137Z,2.95
2023-02-02T09:09:55.999Z,2.95
2023-02-02T09:12:26.222Z,5.43
2023-02-02T09:14:56.969Z,9.00
2023-02-02T09:17:28.980Z,13.18
2023-02-02T09:19:58.283Z,11.18
2023-02-02T09:22:28.910Z,10.50
2023-02-02T09:24:58.547Z,8.38
2023-02-02T09:27:28.361Z,4.72
2023-02-02T09:29:59.113Z,5.18
2023-02-02T09:32:28.855Z,7.47
2023-02-02T09:34:58.409Z,4.93
2023-02-02T09:37:28.385Z,4.63
2023-02-02T09:39:57.626Z,5.68
2023-02-02T09:42:44.895Z,6.13
2023-02-02T09:45:25.028Z,4.95
2023-02-02T09:47:58.726Z,20.52
2023-02-02T09:50:47.534Z,5.22
2023-02-02T09:53:24.607Z,3.78
2023-02-02T09:55:56.440Z,4.70
2023-02-02T09:58:30.119Z,10.20
2023-02-02T10:01:06.184Z,7.88
2023-02-02T10:03:41.121Z,3.67
2023-02-02T10:06:23.222Z,6.38
2023-02-02T10:08:57.426Z,5.75
2023-02-02T10:11:35.065Z,3.40
2023-02-02T10:14:09.406Z,7.80
2023-02-02T10:16:42.376Z,5.45
2023-02-02T10:19:13.998Z,6.07
2023-02-02T10:21:50.315Z,4.75
2023-02-02T10:24:23.532Z,4.25
2023-02-02T10:26:55.428Z,5.72
2023-02-02T10:29:48.115Z,3.38
2023-02-02T10:32:25.260Z,2.58
2023-02-02T10:35:29.043Z,2.33
2023-02-02T10:38:03.476Z,2.65
2023-02-02T10:40:46.085Z,2.45
2023-02-02T10:43:54.739Z,4.93
2023-02-02T10:46:27.380Z,5.50
2023-02-02T10:49:15.837Z,4.30
2023-02-02T10:51:51.897Z,1.17
2023-02-02T10:55:04.488Z,2.72
2023-02-02T10:57:59.327Z,1.73
2023-02-02T11:00:36.492Z,1.85
2023-02-02T11:03:07.524Z,1.48
2023-02-02T11:05:55.859Z,1.95
2023-02-02T11:08:33.207Z,1.02
2023-02-02T11:11:13.535Z,4.53
2023-02-02T11:13:48.172Z,3.20
2023-02-02T11:16:23.121Z,1.27
2023-02-02T11:18:52.832Z,4.20
2023-02-02T11:21:27.186Z,1.98
2023-02-02T11:23:59.471Z,3.85
2023-02-02T11:26:41.330Z,1.08
2023-02-02T11:29:17.016Z,5.28
2023-02-02T11:31:47.197Z,2.15
2023-02-02T11:34:23.071Z,2.13
2023-02-02T11:37:05.759Z,7.68
2023-02-02T11:39:35.408Z,2.30
2023-02-02T11:42:08.283Z,1.55
2023-02-02T11:44:41.370Z,0.70
2023-02-02T11:47:21.984Z,0.98
2023-02-02T11:49:53.650Z,2.67
2023-02-02T11:52:26.548Z,2.53
2023-02-02T11:54:59.701Z,1.98
2023-02-02T11:57:30.846Z,4.55
2023-02-02T12:00:19.227Z,2.83
2023-02-02T12:02:50.370Z,1.95
2023-02-02T12:05:38.480Z,2.45
2023-02-02T12:08:12.884Z,2.50
2023-02-02T12:10:48.373Z,4.53
2023-02-02T12:13:27.385Z,3.67
2023-02-02T12:16:09.138Z,2.10
2023-02-02T12:18:52.007Z,1.75
2023-02-02T12:21:31.540Z,2.75
2023-02-02T12:24:16.642Z,1.42
2023-02-02T12:26:52.080Z,0.57
2023-02-02T12:29:54.743Z,0.95
2023-02-02T12:32:47.076Z,2.20
2023-02-02T12:35:28.832Z,3.75
2023-02-02T12:38:08.256Z,5.60
2023-02-02T12:40:58.344Z,4.63
2023-02-02T12:43:40.155Z,7.65
2023-02-02T12:46:34.355Z,11.13
2023-02-02T12:49:22.806Z,4.35
2023-02-02T12:52:09.025Z,3.58
2023-02-02T12:54:57.758Z,6.88
2023-02-02T12:57:41.229Z,14.38
2023-02-02T13:00:57.642Z,14.75
2023-02-02T13:03:58.263Z,10.43
2023-02-02T13:07:00.527Z,6.90
2023-02-02T13:09:35.728Z,6.13
2023-02-02T13:12:09.242Z,7.22
2023-02-02T13:14:43.619Z,2.63
2023-02-02T13:17:18.825Z,6.50
2023-02-02T13:19:53.809Z,7.28
2023-02-02T13:22:28.572Z,6.97
2023-02-02T13:25:01.958Z,6.43
2023-02-02T13:27:32.689Z,4.82
2023-02-02T13:30:12.650Z,8.05
2023-02-02T13:32:45.589Z,5.82
2023-02-02T13:35:20.316Z,3.88
2023-02-02T13:37:55.487Z,5.70
2023-02-02T13:40:32.284Z,9.00
2023-02-02T13:43:10.991Z,6.13
2023-02-02T13:45:54.479Z,8.05
2023-02-02T13:48:33.085Z,2.85
2023-02-02T13:51:26.372Z,5.93
2023-02-02T13:54:29.325Z,3.95
2023-02-02T13:57:06.543Z,3.28
2023-02-02T13:59:54.657Z,5.05
2023-02-02T14:02:32.580Z,3.42
2023-02-02T14:05:05.858Z,6.70
2023-02-02T14:07:42.133Z,4.07
2023-02-02T14:10:26.014Z,7.07
2023-02-02T14:12:56.917Z,3.38
2023-02-02T14:15:40.831Z,2.63
2023-02-02T14:18:11.773Z,5.75
2023-02-02T14:20:47.772Z,7.53
2023-02-02T14:23:57.920Z,5.47
2023-02-02T14:26:45.946Z,2.23
2023-02-02T14:29:39.666Z,3.00
2023-02-02T14:32:31.153Z,5.90
2023-02-02T14:35:25.047Z,7.40
2023-02-02T14:38:00.029Z,2.67
2023-02-02T14:40:41.011Z,2.88
2023-02-02T14:43:43.277Z,3.33
2023-02-02T14:46:26.165Z,5.18
2023-02-02T14:49:19.443Z,6.90
2023-02-02T14:52:05.667Z,6.07
2023-02-02T14:54:41.611Z,6.88
2023-02-02T14:57:27.120Z,3.90
2023-02-02T15:00:01.216Z,5.63
2023-02-02T15:02:36.518Z,3.47
2023-02-02T15:05:46.554Z,4.70
2023-02-02T15:08:28.632Z,9.25
2023-02-02T15:11:02.082Z,3.67
2023-02-02T15:13:38.002Z,3.95
2023-02-02T15:16:16.423Z,3.30
2023-02-02T15:18:49.924Z,4.22
2023-02-02T15:21:24.077Z,7.75
2023-02-02T15:23:56.117Z,11.30
2023-02-02T15:26:29.884Z,17.85
2023-02-02T15:29:01.871Z,14.55
2023-02-02T15:31:38.870Z,18.08
2023-02-02T15:34:18.178Z,14.68
2023-02-02T15:36:51.493Z,8.60
2023-02-02T15:39:29.803Z,6.65
2023-02-02T15:42:19.591Z,10.75
2023-02-02T15:44:50.129Z,11.32
2023-02-02T15:47:22.007Z,11.70
2023-02-02T15:49:51.818Z,5.57
2023-02-02T15:52:27.610Z,5.67
2023-02-02T15:55:00.481Z,6.13
2023-02-02T15:57:33.015Z,6.40
2023-02-02T16:00:18.347Z,6.97
2023-02-02T16:02:49.276Z,11.52
2023-02-02T16:05:45.632Z,4.18
2023-02-02T16:08:20.433Z,6.72
2023-02-02T16:10:52.476Z,5.63
2023-02-02T16:13:27.312Z,5.40
2023-02-02T16:15:58.291Z,8.98
2023-02-02T16:18:28.296Z,6.18
2023-02-02T16:20:59.943Z,7.13
2023-02-02T16:23:34.267Z,6.38
2023-02-02T16:26:09.023Z,6.82
2023-02-02T16:28:39.086Z,8.32
2023-02-02T16:31:09.916Z,9.27
2023-02-02T16:33:42.534Z,13.65
2023-02-02T16:36:25.001Z,8.52
2023-02-02T16:38:57.994Z,11.40
2023-02-02T16:41:32.618Z,9.40
2023-02-02T16:44:31.132Z,9.05
2023-02-02T16:47:01.828Z,7.53
2023-02-02T16:49:32.471Z,4.28
2023-02-02T16:52:14.633Z,9.70
2023-02-02T16:54:51.901Z,6.32
2023-02-02T16:57:25.412Z,9.55
2023-02-02T16:59:58.097Z,10.32
2023-02-02T17:02:32.391Z,7.55
2023-02-02T17:05:05.986Z,5.30
2023-02-02T17:07:37.395Z,10.15
2023-02-02T17:10:27.205Z,6.80
2023-02-02T17:12:58.039Z,8.60
2023-02-02T17:15:38.195Z,6.80
2023-02-02T17:18:07.621Z,5.53
2023-02-02T17:20:37.749Z,5.75
2023-02-02T17:23:10.741Z,9.75
2023-02-02T17:25:44.068Z,7.45
2023-02-02T17:28:17.775Z,3.78
2023-02-02T17:30:49.701Z,7.28
2023-02-02T17:33:20.322Z,6.93
2023-02-02T17:35:56.153Z,5.38
2023-02-02T17:38:28.028Z,4.18
2023-02-02T17:41:01.429Z,6.38
2023-02-02T17:43:33.901Z,5.75
2023-02-02T17:46:05.412Z,5.78
2023-02-02T17:48:34.831Z,5.40
2023-02-02T17:51:07.378Z,5.93
2023-02-02T17:53:36.923Z,6.15
2023-02-02T17:56:07.212Z,9.52
2023-02-02T17:58:38.032Z,6.22
2023-02-02T18:01:09.207Z,5.90
2023-02-02T18:03:41.080Z,6.78
2023-02-02T18:06:12.507Z,5.90
2023-02-02T18:08:42.972Z,5.05
2023-02-02T18:11:14.404Z,8.70
2023-02-02T18:16:15.663Z,6.45
2023-02-02T18:18:46.085Z,8.20
2023-02-02T18:21:16.057Z,11.20
2023-02-02T18:23:48.766Z,7.30
2023-02-02T18:26:22.467Z,6.00
2023-02-02T18:28:53.783Z,4.45
2023-02-02T18:31:24.637Z,6.25
2023-02-02T18:33:54.743Z,3.30
2023-02-02T18:36:24.552Z,4.63
2023-02-02T18:38:54.902Z,4.35
2023-02-02T18:41:24.935Z,3.70
2023-02-02T18:43:57.460Z,6.05
2023-02-02T18:46:28.354Z,4.50
2023-02-02T18:48:57.781Z,6.17
2023-02-02T18:51:27.789Z,6.22
2023-02-02T18:54:00.747Z,7.78
2023-02-02T18:56:31.458Z,3.45
2023-02-02T18:59:02.268Z,7.32
2023-02-02T19:01:32.157Z,8.63
2023-02-02T19:04:02.381Z,5.15
2023-02-02T19:06:49.726Z,4.57
2023-02-02T19:09:19.158Z,3.15
2023-02-02T19:11:51.151Z,5.07
2023-02-02T19:14:24.950Z,3.65
2023-02-02T19:16:57.475Z,5.90
2023-02-02T19:19:30.386Z,6.75
2023-02-02T19:22:02.154Z,5.40
2023-02-02T19:24:41.122Z,3.97
2023-02-02T19:27:18.505Z,8.43
2023-02-02T19:29:51.521Z,4.00
2023-02-02T19:32:23.743Z,8.65
2023-02-02T19:34:55.586Z,5.63
2023-02-02T19:37:26.791Z,5.05
2023-02-02T19:39:57.348Z,4.88
2023-02-02T19:42:27.389Z,7.20
2023-02-02T19:44:58.831Z,5.55
2023-02-02T19:47:35.109Z,7.80
2023-02-02T19:50:17.213Z,5.85
2023-02-02T19:52:48.561Z,4.63
2023-02-02T19:55:24.357Z,9.50
2023-02-02T19:57:55.397Z,6.38
2023-02-02T20:00:28.903Z,6.32
2023-02-02T20:03:05.268Z,8.73
2023-02-02T20:05:37.208Z,5.32
2023-02-02T20:08:15.205Z,8.15
2023-02-02T20:10:46.512Z,10.50
2023-02-02T20:13:21.296Z,8.98
2023-02-02T20:16:03.373Z,10.48
2023-02-02T20:18:42.467Z,8.63
2023-02-02T20:21:22.806Z,5.95
2023-02-02T20:23:52.677Z,6.93
2023-02-02T20:26:28.117Z,10.23
2023-02-02T20:29:01.242Z,11.68
2023-02-02T20:31:39.053Z,8.75
2023-02-02T20:34:27.213Z,10.68
2023-02-02T20:37:01.689Z,8.38
2023-02-02T20:39:36.526Z,6.88
2023-02-02T20:42:06.767Z,6.63
2023-02-02T20:44:38.667Z,8.80
2023-02-02T20:47:10.276Z,9.68
2023-02-02T20:49:40.955Z,8.98
2023-02-02T20:52:13.859Z,8.70
2023-02-02T20:54:43.542Z,13.07
2023-02-02T20:57:13.023Z,10.43
2023-02-02T20:59:42.891Z,12.88
2023-02-02T21:02:19.565Z,6.93
2023-02-02T21:04:49.866Z,7.28
2023-02-02T21:07:22.355Z,9.52
2023-02-02T21:09:52.845Z,10.32
2023-02-02T21:12:25.818Z,8.77
2023-02-02T21:14:55.538Z,7.82
2023-02-02T21:17:27.772Z,12.73
2023-02-02T21:19:58.044Z,7.85
2023-02-02T21:22:27.891Z,7.85
2023-02-02T21:24:58.689Z,11.48
2023-02-02T21:27:28.657Z,17.17
2023-02-02T21:29:58.455Z,12.13
2023-02-02T21:32:29.216Z,7.47
2023-02-02T21:34:59.306Z,9.13
2023-02-02T21:37:28.699Z,9.30
2023-02-02T21:40:00.966Z,8.45
2023-02-02T21:42:35.759Z,6.63
2023-02-02T21:45:29.466Z,5.85
2023-02-02T21:48:02.297Z,4.82
2023-02-02T21:50:35.680Z,6.28
2023-02-02T21:53:20.513Z,5.72
2023-02-02T21:55:54.709Z,6.47
2023-02-02T21:58:26.447Z,9.30
2023-02-02T22:01:01.122Z,6.97
2023-02-02T22:03:38.757Z,5.35
2023-02-02T22:06:29.968Z,10.50
2023-02-02T22:09:03.650Z,9.02
2023-02-02T22:11:48.330Z,5.38
2023-02-02T22:14:21.570Z,9.85
2023-02-02T22:16:53.649Z,7.47
2023-02-02T22:19:29.786Z,8.05
2023-02-02T22:22:19.919Z,11.25
2023-02-02T22:24:58.959Z,8.35
2023-02-02T22:27:41.539Z,11.50
2023-02-02T22:30:23.162Z,9.18
2023-02-02T22:32:53.008Z,7.80
2023-02-02T22:35:24.106Z,6.95
2023-02-02T22:37:53.922Z,9.38
2023-02-02T22:40:24.484Z,8.55
2023-02-02T22:42:56.575Z,8.75
2023-02-02T22:45:26.156Z,10.43
2023-02-02T22:47:56.570Z,9.48
2023-02-02T22:50:29.219Z,6.40
2023-02-02T22:52:59.694Z,8.77
2023-02-02T22:55:29.191Z,6.18
2023-02-02T22:57:58.954Z,7.22
2023-02-02T23:00:30.392Z,10.15
2023-02-02T23:03:00.332Z,7.93
2023-02-02T23:05:31.615Z,8.02
2023-02-02T23:08:01.236Z,9.55
2023-02-02T23:10:35.568Z,7.70
2023-02-02T23:13:06.614Z,8.32
2023-02-02T23:15:36.371Z,8.52
2023-02-02T23:18:06.538Z,6.00
2023-02-02T23:20:37.372Z,8.77
2023-02-02T23:23:07.029Z,8.48
2023-02-02T23:25:36.341Z,11.40
2023-02-02T23:28:06.448Z,6.82
2023-02-02T23:30:35.738Z,6.30
2023-02-02T23:33:05.633Z,11.05
2023-02-02T23:35:35.060Z,7.32
2023-02-02T23:38:06.245Z,12.20
2023-02-02T23:40:35.592Z,7.70
2023-02-02T23:43:05.359Z,8.38
2023-02-02T23:45:34.780Z,11.40
2023-02-02T23:48:04.643Z,8.80
2023-02-02T23:50:35.199Z,10.00
2023-02-02T23:53:07.125Z,14.57
2023-02-02T23:55:36.732Z,19.20
2023-02-02T23:58:07.315Z,14.02
